Airfield :
LOGIN :

Register | Disclaimer

   EN    FR    IT 

 










Legend :    VFR   Marginal VFR   IFR   Intensive IFR   Very Intensive IFR
Visi :
Ceiling :
>= 8 km
>= 3000ft
5 to 8 km
1000 to 3000 ft
1500m to 5 km
500 to 1000 ft
800 to 1500m
200 to 500 ft
< 800m
< 200 ft
Symbols :   Thunderstorms  Fog  Heavy snow  Heavy precipitations  Wind > 20 kt
SIGMETs :     Misc.  Thunderstorms  Icing  Turbulence  Mountain Waves  Volcanic Ashes







- Airport Elevation : 1548 ft


LKNA - Náměšť Air Base

CURRENT METAR :
  • 231700Z 26005KT 9999 SCT027 OVC060 02/01 Q1025 NOSIG

EXPIRED METARs :
  • 231600Z 27006KT 9999 FEW023 OVC060 02/00 Q1024 NOSIG RMK BLU BLU
  • 231500Z 29008KT 9999 FEW025 BKN070 02/01 Q1024 NOSIG RMK BLU BLU

TAF TAF LKNA
Valid from the 23 at 18:00 until the 24 at 18:00 UTC


231700Z 2318/2418 24006KT 9999 SCT025 BKN060
BECMG 2318/2320 16006KT 7000
TEMPO 2320/2404 3000 BR BKN007
BECMG 2404/2406 5000 BR BKN012
TEMPO 2406/2411 2000 RA BR BKN005
No reported NOTAMs for that airfield.



MET'MAP, your aeronautical weather chart ! - Copyright ORBIFLY December 2007 - Disclaimer

ORBIFLY MET'MAP TEAM :

Programming & Development : Alexandra Zaïnal
Concept & Development : Baudouin d'Aumeries
Co-Development & Prog : Marc-Olivier Méhu
Technical & hardware support : Manuel Goepfert

Contact : metmap@orbifly.com




SOURCES & CREDITS :

   NOAA